createdAt,value
2023-02-16T00:00:24.146Z,148.25
2023-02-16T00:02:50.744Z,133.07
2023-02-16T00:05:30.038Z,138.90
2023-02-16T00:07:57.209Z,133.63
2023-02-16T00:10:25.833Z,132.98
2023-02-16T00:13:11.801Z,135.05
2023-02-16T00:15:38.603Z,123.35
2023-02-16T00:18:22.215Z,128.35
2023-02-16T00:20:49.431Z,136.13
2023-02-16T00:23:16.387Z,137.23
2023-02-16T00:25:43.294Z,133.13
2023-02-16T00:28:19.277Z,129.43
2023-02-16T00:30:46.733Z,132.07
2023-02-16T00:33:18.744Z,135.07
2023-02-16T00:35:45.892Z,134.43
2023-02-16T00:38:13.709Z,141.85
2023-02-16T00:40:41.873Z,139.52
2023-02-16T00:43:21.897Z,139.43
2023-02-16T00:45:48.599Z,104.78
2023-02-16T00:48:15.246Z,145.20
2023-02-16T00:50:41.896Z,138.93
2023-02-16T00:53:10.681Z,140.45
2023-02-16T00:55:39.273Z,150.30
2023-02-16T00:58:16.532Z,154.55
2023-02-16T01:00:52.908Z,159.18
2023-02-16T01:03:24.468Z,153.25
2023-02-16T01:06:11.597Z,153.07
2023-02-16T01:08:57.264Z,159.45
2023-02-16T01:11:24.188Z,156.07
2023-02-16T01:13:51.858Z,158.85
2023-02-16T01:16:37.858Z,154.80
2023-02-16T01:19:05.209Z,160.68
2023-02-16T01:21:31.713Z,163.15
2023-02-16T01:23:58.250Z,166.15
2023-02-16T01:26:25.020Z,156.48
2023-02-16T01:28:51.752Z,154.98
2023-02-16T01:31:18.916Z,145.90
2023-02-16T01:33:45.456Z,148.07
2023-02-16T01:36:34.913Z,138.38
2023-02-16T01:39:02.370Z,146.82
2023-02-16T01:42:03.188Z,146.63
2023-02-16T01:47:00.896Z,152.43
2023-02-16T01:49:27.571Z,138.20
2023-02-16T01:52:12.050Z,154.50
2023-02-16T01:54:49.727Z,137.10
2023-02-16T01:57:40.126Z,141.23
2023-02-16T02:00:16.497Z,149.68
2023-02-16T02:02:46.734Z,147.45
2023-02-16T02:05:36.310Z,147.18
2023-02-16T02:08:28.977Z,145.35
2023-02-16T02:11:14.131Z,156.27
2023-02-16T02:14:09.359Z,151.10
2023-02-16T02:16:36.045Z,154.52
2023-02-16T02:19:02.811Z,152.55
2023-02-16T02:22:22.287Z,157.80
2023-02-16T02:25:07.075Z,151.25
2023-02-16T02:27:44.372Z,170.32
2023-02-16T02:30:28.848Z,155.82
2023-02-16T02:33:25.425Z,134.95
2023-02-16T02:36:09.797Z,142.90
2023-02-16T02:38:51.311Z,149.95
2023-02-16T02:41:54.707Z,157.90
2023-02-16T02:44:24.110Z,152.77
2023-02-16T02:46:51.381Z,141.45
2023-02-16T02:49:17.951Z,145.05
2023-02-16T02:51:44.514Z,146.90
2023-02-16T02:54:34.663Z,156.07
2023-02-16T02:57:23.044Z,148.85
2023-02-16T03:00:36.694Z,164.70
2023-02-16T03:03:06.976Z,150.35
2023-02-16T03:05:35.551Z,164.73
2023-02-16T03:08:14.058Z,156.90
2023-02-16T03:11:03.775Z,155.82
2023-02-16T03:13:35.238Z,142.60
2023-02-16T03:16:10.066Z,147.90
2023-02-16T03:18:57.992Z,148.88
2023-02-16T03:21:44.962Z,130.77
2023-02-16T03:24:35.371Z,142.38
2023-02-16T03:27:21.154Z,122.35
2023-02-16T03:29:51.301Z,136.30
2023-02-16T03:32:18.556Z,140.52
2023-02-16T03:34:45.283Z,132.07
2023-02-16T03:37:13.463Z,127.47
2023-02-16T03:39:58.293Z,126.15
2023-02-16T03:42:25.179Z,137.15
2023-02-16T03:44:52.634Z,133.23
2023-02-16T03:47:19.434Z,133.30
2023-02-16T03:49:46.911Z,123.65
2023-02-16T03:52:13.543Z,122.55
2023-02-16T03:54:40.068Z,121.95
2023-02-16T03:57:06.736Z,122.85
2023-02-16T03:59:33.346Z,132.95
2023-02-16T04:02:00.308Z,125.75
2023-02-16T04:04:26.935Z,132.95
2023-02-16T04:06:53.455Z,116.55
2023-02-16T04:09:20.145Z,109.05
2023-02-16T04:12:04.894Z,119.15
2023-02-16T04:14:31.529Z,118.75
2023-02-16T04:16:58.057Z,111.28
2023-02-16T04:19:24.908Z,119.63
2023-02-16T04:21:53.070Z,111.05
2023-02-16T04:24:19.985Z,128.05
2023-02-16T04:26:46.628Z,138.00
2023-02-16T04:29:13.174Z,131.45
2023-02-16T04:31:39.821Z,137.75
2023-02-16T04:34:06.566Z,131.18
2023-02-16T04:36:34.434Z,128.43
2023-02-16T04:39:01.194Z,110.22
2023-02-16T04:41:27.783Z,93.10
2023-02-16T04:43:54.451Z,95.82
2023-02-16T04:46:21.168Z,97.43
2023-02-16T04:48:47.939Z,94.25
2023-02-16T04:51:14.780Z,95.97
2023-02-16T04:53:41.387Z,87.95
2023-02-16T04:56:12.420Z,92.35
2023-02-16T04:58:39.345Z,90.43
2023-02-16T05:01:06.565Z,90.00
2023-02-16T05:03:33.909Z,85.65
2023-02-16T05:06:00.848Z,82.60
2023-02-16T05:08:27.587Z,86.57
2023-02-16T05:11:12.952Z,86.97
2023-02-16T05:13:58.122Z,88.47
2023-02-16T05:16:25.164Z,84.25
2023-02-16T05:18:51.905Z,82.05
2023-02-16T05:21:30.875Z,87.00
2023-02-16T05:24:18.217Z,78.80
2023-02-16T05:26:44.798Z,79.82
2023-02-16T05:29:11.434Z,78.60
2023-02-16T05:31:38.053Z,80.75
2023-02-16T05:34:05.114Z,74.85
2023-02-16T05:36:31.766Z,75.47
2023-02-16T05:38:58.506Z,81.10
2023-02-16T05:41:25.144Z,71.78
2023-02-16T05:43:57.912Z,76.28
2023-02-16T05:46:26.723Z,82.72
2023-02-16T05:48:53.686Z,80.03
2023-02-16T05:51:21.232Z,82.75
2023-02-16T05:53:48.167Z,87.80
2023-02-16T05:56:15.113Z,84.88
2023-02-16T05:58:41.866Z,92.07
2023-02-16T06:01:08.536Z,83.95
2023-02-16T06:03:36.028Z,93.82
2023-02-16T06:06:04.085Z,85.85
2023-02-16T06:08:31.001Z,90.22
2023-02-16T06:10:58.190Z,81.03
2023-02-16T06:13:25.278Z,94.65
2023-02-16T06:15:57.004Z,88.85
2023-02-16T06:18:24.649Z,90.60
2023-02-16T06:20:51.645Z,93.28
2023-02-16T06:23:18.571Z,95.53
2023-02-16T06:25:49.321Z,94.47
2023-02-16T06:28:15.937Z,93.75
2023-02-16T06:30:42.792Z,100.38
2023-02-16T06:33:09.386Z,85.68
2023-02-16T06:35:36.041Z,87.00
2023-02-16T06:38:02.612Z,90.13
2023-02-16T06:40:29.182Z,87.28
2023-02-16T06:42:55.893Z,90.35
2023-02-16T06:45:22.436Z,85.13
2023-02-16T06:47:48.956Z,90.22
2023-02-16T06:50:15.586Z,80.22
2023-02-16T06:52:42.348Z,84.30
2023-02-16T06:55:09.331Z,88.05
2023-02-16T06:57:35.822Z,84.07
2023-02-16T07:00:04.775Z,88.75
2023-02-16T07:02:31.335Z,79.75
2023-02-16T07:04:57.913Z,84.05
2023-02-16T07:07:24.442Z,80.60
2023-02-16T07:09:51.139Z,79.22
2023-02-16T07:12:17.824Z,74.28
2023-02-16T07:14:44.427Z,77.63
2023-02-16T07:17:11.242Z,76.93
2023-02-16T07:19:37.779Z,80.63
2023-02-16T07:22:05.438Z,82.18
2023-02-16T07:24:32.078Z,84.85
2023-02-16T07:26:58.629Z,95.25
2023-02-16T07:29:25.330Z,86.82
2023-02-16T07:31:52.167Z,80.75
2023-02-16T07:34:20.933Z,86.10
2023-02-16T07:36:48.437Z,84.67
2023-02-16T07:39:15.076Z,86.68
2023-02-16T07:41:41.862Z,76.18
2023-02-16T07:44:08.918Z,75.88
2023-02-16T07:46:35.687Z,69.30
2023-02-16T07:49:02.488Z,69.45
2023-02-16T07:51:31.125Z,74.07
2023-02-16T07:53:58.834Z,68.72
2023-02-16T07:56:28.248Z,72.97
2023-02-16T07:58:56.671Z,69.82
2023-02-16T08:01:24.165Z,72.68
2023-02-16T08:03:51.091Z,65.32
2023-02-16T08:06:18.043Z,64.75
2023-02-16T08:08:45.381Z,66.38
2023-02-16T08:11:23.370Z,62.40
2023-02-16T08:13:51.123Z,65.93
2023-02-16T08:16:24.509Z,63.95
2023-02-16T08:18:52.309Z,61.25
2023-02-16T08:21:21.903Z,57.78
2023-02-16T08:24:02.687Z,65.00
2023-02-16T08:28:58.717Z,53.08
2023-02-16T08:31:29.926Z,60.83
2023-02-16T08:33:59.536Z,66.30
2023-02-16T08:36:32.980Z,64.10
2023-02-16T08:39:00.966Z,69.47
2023-02-16T08:41:36.868Z,60.17
2023-02-16T08:44:04.756Z,64.82
2023-02-16T08:46:33.322Z,61.78
2023-02-16T08:49:01.113Z,58.22
2023-02-16T08:51:30.747Z,57.40
2023-02-16T08:54:00.258Z,58.40
2023-02-16T08:56:29.767Z,53.65
2023-02-16T08:58:57.169Z,59.30
2023-02-16T09:01:23.965Z,61.00
2023-02-16T09:03:51.323Z,54.63
2023-02-16T09:06:23.293Z,56.47
2023-02-16T09:08:57.268Z,62.17
2023-02-16T09:11:25.061Z,62.88
2023-02-16T09:13:51.846Z,56.67
2023-02-16T09:16:21.430Z,58.83
2023-02-16T09:18:48.795Z,64.45
2023-02-16T09:21:18.191Z,68.00
2023-02-16T09:23:48.212Z,62.20
2023-02-16T09:26:19.546Z,69.95
2023-02-16T09:28:47.236Z,63.72
2023-02-16T09:31:20.164Z,63.67
2023-02-16T09:33:46.952Z,63.15
2023-02-16T09:36:14.185Z,61.20
2023-02-16T09:38:41.240Z,54.63
2023-02-16T09:41:20.124Z,54.53
2023-02-16T09:43:56.778Z,51.83
2023-02-16T09:46:25.360Z,55.30
2023-02-16T09:48:53.228Z,51.85
2023-02-16T09:51:34.293Z,54.38
2023-02-16T09:54:16.797Z,56.60
2023-02-16T09:57:08.718Z,60.70
2023-02-16T09:59:50.048Z,60.58
2023-02-16T10:02:46.083Z,64.35
2023-02-16T10:05:31.202Z,62.78
2023-02-16T10:08:03.335Z,61.92
2023-02-16T10:10:53.511Z,72.18
2023-02-16T10:13:47.265Z,71.05
2023-02-16T10:16:22.815Z,71.38
2023-02-16T10:18:53.972Z,76.32
2023-02-16T10:21:26.143Z,66.78
2023-02-16T10:24:02.262Z,63.53
2023-02-16T10:26:36.546Z,68.55
2023-02-16T10:29:15.875Z,71.47
2023-02-16T10:32:11.792Z,73.20
2023-02-16T10:34:47.584Z,73.78
2023-02-16T10:37:39.192Z,80.75
2023-02-16T10:40:36.257Z,76.28
2023-02-16T10:43:18.651Z,77.82
2023-02-16T10:45:59.266Z,83.15
2023-02-16T10:48:26.561Z,79.47
2023-02-16T10:50:59.062Z,77.47
2023-02-16T10:53:31.699Z,70.10
2023-02-16T10:55:58.888Z,66.85
2023-02-16T10:58:40.102Z,64.15
2023-02-16T11:01:20.461Z,65.70
2023-02-16T11:03:53.274Z,68.78
2023-02-16T11:06:23.467Z,68.65
2023-02-16T11:09:01.216Z,69.57
2023-02-16T11:11:38.856Z,67.32
2023-02-16T11:14:21.542Z,74.05
2023-02-16T11:16:48.460Z,86.00
2023-02-16T11:19:24.765Z,81.35
2023-02-16T11:21:58.873Z,86.82
2023-02-16T11:24:28.123Z,86.13
2023-02-16T11:27:12.913Z,79.80
2023-02-16T11:29:40.988Z,80.00
2023-02-16T11:32:09.424Z,85.05
2023-02-16T11:34:41.345Z,83.80
2023-02-16T11:37:28.543Z,83.68
2023-02-16T11:40:04.831Z,88.55
2023-02-16T11:42:40.543Z,95.03
2023-02-16T11:45:09.234Z,94.45
2023-02-16T11:47:39.784Z,94.20
2023-02-16T11:50:31.382Z,90.55
2023-02-16T11:53:10.451Z,100.70
2023-02-16T11:55:46.217Z,99.78
2023-02-16T11:58:15.591Z,95.30
2023-02-16T12:00:52.142Z,90.78
2023-02-16T12:03:50.492Z,92.60
2023-02-16T12:06:36.013Z,91.20
2023-02-16T12:09:21.907Z,88.90
2023-02-16T12:11:48.729Z,88.78
2023-02-16T12:14:28.210Z,84.82
2023-02-16T12:17:13.316Z,86.78
2023-02-16T12:19:43.405Z,82.35
2023-02-16T12:22:33.724Z,86.13
2023-02-16T12:25:04.006Z,83.05
2023-02-16T12:27:50.267Z,84.70
2023-02-16T12:30:25.439Z,83.15
2023-02-16T12:33:41.878Z,75.40
2023-02-16T12:36:32.377Z,75.28
2023-02-16T12:39:18.007Z,78.57
2023-02-16T12:42:23.130Z,66.95
2023-02-16T12:44:54.412Z,62.08
2023-02-16T12:47:57.870Z,67.35
2023-02-16T12:50:27.912Z,68.35
2023-02-16T12:53:23.104Z,63.55
2023-02-16T12:55:55.495Z,64.30
2023-02-16T12:58:44.688Z,67.05
2023-02-16T13:01:17.245Z,65.95
2023-02-16T13:03:54.042Z,70.80
2023-02-16T13:06:29.908Z,68.57
2023-02-16T13:09:24.865Z,64.70
2023-02-16T13:12:13.050Z,61.28
2023-02-16T13:14:43.685Z,59.67
2023-02-16T13:19:47.048Z,65.28
2023-02-16T13:22:37.086Z,61.38
2023-02-16T13:25:48.002Z,63.92
2023-02-16T13:31:29.549Z,56.20
2023-02-16T13:33:56.516Z,49.85
2023-02-16T13:36:49.678Z,54.28
2023-02-16T13:39:22.325Z,92.20
2023-02-16T13:42:14.553Z,57.17
2023-02-16T13:44:49.098Z,57.92
2023-02-16T13:47:24.472Z,56.17
2023-02-16T13:49:58.514Z,53.83
2023-02-16T13:52:41.335Z,53.70
2023-02-16T13:55:34.113Z,53.50
2023-02-16T13:58:08.913Z,49.88
2023-02-16T14:00:38.587Z,53.78
2023-02-16T14:03:21.132Z,50.78
2023-02-16T14:05:53.543Z,51.50
2023-02-16T14:08:30.832Z,50.65
2023-02-16T14:11:03.912Z,49.55
2023-02-16T14:13:39.691Z,51.25
2023-02-16T14:16:10.527Z,51.03
2023-02-16T14:18:53.584Z,51.45
2023-02-16T14:21:44.366Z,52.35
2023-02-16T14:27:05.183Z,45.85
2023-02-16T14:29:43.342Z,50.25
2023-02-16T14:32:12.778Z,48.30
2023-02-16T14:34:58.399Z,52.03
2023-02-16T14:37:38.405Z,51.15
2023-02-16T14:40:19.471Z,50.53
2023-02-16T14:42:57.164Z,55.47
2023-02-16T14:45:55.404Z,49.75
2023-02-16T14:48:48.886Z,58.05
2023-02-16T14:51:50.923Z,53.95
2023-02-16T14:54:54.438Z,51.63
2023-02-16T14:57:31.267Z,47.55
2023-02-16T15:00:31.045Z,51.00
2023-02-16T15:03:13.970Z,54.25
2023-02-16T15:05:41.646Z,55.75
2023-02-16T15:08:23.199Z,51.90
2023-02-16T15:10:58.439Z,58.35
2023-02-16T15:13:28.560Z,53.22
2023-02-16T15:15:59.045Z,51.65
2023-02-16T15:18:38.630Z,55.00
2023-02-16T15:21:06.741Z,54.45
2023-02-16T15:23:35.844Z,57.72
2023-02-16T15:26:09.413Z,50.90
2023-02-16T15:28:38.435Z,54.45
2023-02-16T15:31:08.661Z,55.13
2023-02-16T15:33:38.258Z,53.85
2023-02-16T15:36:12.872Z,49.10
2023-02-16T15:38:42.229Z,51.17
2023-02-16T15:41:14.001Z,51.25
2023-02-16T15:43:43.301Z,54.53
2023-02-16T15:46:41.356Z,50.17
2023-02-16T15:49:21.686Z,54.15
2023-02-16T15:51:49.403Z,47.95
2023-02-16T15:54:28.059Z,54.03
2023-02-16T15:56:58.355Z,53.60
2023-02-16T15:59:35.047Z,56.25
2023-02-16T16:02:36.063Z,53.80
2023-02-16T16:05:06.005Z,49.83
2023-02-16T16:07:40.040Z,50.88
2023-02-16T16:10:21.667Z,54.70
2023-02-16T16:12:50.679Z,56.63
2023-02-16T16:15:24.267Z,54.00
2023-02-16T16:17:53.073Z,52.03
2023-02-16T16:20:22.194Z,56.92
2023-02-16T16:22:59.296Z,52.72
2023-02-16T16:25:30.232Z,53.40
2023-02-16T16:27:57.921Z,52.65
2023-02-16T16:30:24.525Z,51.67
2023-02-16T16:33:02.763Z,53.22
2023-02-16T16:35:41.935Z,49.60
2023-02-16T16:38:22.333Z,55.60
2023-02-16T16:41:02.867Z,55.33
2023-02-16T16:46:26.485Z,52.33
2023-02-16T16:49:03.523Z,54.45
2023-02-16T16:51:43.115Z,54.33
2023-02-16T16:54:39.879Z,52.13
2023-02-16T16:57:15.743Z,54.75
2023-02-16T16:59:42.311Z,55.28
2023-02-16T17:02:10.981Z,56.05
2023-02-16T17:04:37.581Z,55.25
2023-02-16T17:07:04.224Z,58.47
2023-02-16T17:09:30.768Z,58.22
2023-02-16T17:11:58.550Z,54.72
2023-02-16T17:14:27.577Z,55.08
2023-02-16T17:16:55.181Z,53.20
2023-02-16T17:19:23.176Z,56.28
2023-02-16T17:21:50.400Z,55.80
2023-02-16T17:24:17.210Z,57.60
2023-02-16T17:26:43.843Z,53.20
2023-02-16T17:29:10.384Z,55.80
2023-02-16T17:31:37.263Z,54.53
2023-02-16T17:34:04.546Z,60.33
2023-02-16T17:36:31.146Z,62.50
2023-02-16T17:38:58.290Z,58.83
2023-02-16T17:41:30.108Z,57.65
2023-02-16T17:43:56.920Z,61.30
2023-02-16T17:46:23.969Z,62.38
2023-02-16T17:48:53.968Z,56.80
2023-02-16T17:51:22.269Z,59.60
2023-02-16T17:53:49.712Z,55.83
2023-02-16T17:56:18.819Z,60.05
2023-02-16T17:58:45.674Z,69.60
2023-02-16T18:01:18.253Z,86.28
2023-02-16T18:03:44.977Z,62.75
2023-02-16T18:06:20.398Z,60.00
2023-02-16T18:08:47.583Z,57.05
2023-02-16T18:11:14.104Z,61.15
2023-02-16T18:13:40.665Z,68.38
2023-02-16T18:16:08.205Z,63.25
2023-02-16T18:18:36.880Z,58.72
2023-02-16T18:21:03.799Z,54.50
2023-02-16T18:23:30.447Z,58.95
2023-02-16T18:25:57.729Z,63.60
2023-02-16T18:28:29.472Z,60.53
2023-02-16T18:30:56.449Z,52.20
2023-02-16T18:33:23.933Z,58.78
2023-02-16T18:35:56.062Z,56.83
2023-02-16T18:38:23.739Z,58.60
2023-02-16T18:40:53.291Z,59.53
2023-02-16T18:43:21.080Z,63.50
2023-02-16T18:45:47.682Z,54.45
2023-02-16T18:48:14.501Z,55.25
2023-02-16T18:50:41.032Z,58.40
2023-02-16T18:53:07.611Z,57.85
2023-02-16T18:55:35.066Z,56.03
2023-02-16T18:58:06.038Z,54.90
2023-02-16T19:00:34.004Z,55.83
2023-02-16T19:03:00.607Z,59.42
2023-02-16T19:05:27.444Z,60.60
2023-02-16T19:07:53.936Z,59.47
2023-02-16T19:10:20.760Z,53.83
2023-02-16T19:12:47.288Z,53.47
2023-02-16T19:15:13.925Z,56.75
2023-02-16T19:17:40.481Z,49.92
2023-02-16T19:20:09.847Z,52.13
2023-02-16T19:22:37.468Z,55.78
2023-02-16T19:25:07.203Z,53.55
2023-02-16T19:27:33.838Z,50.65
2023-02-16T19:30:00.483Z,56.05
2023-02-16T19:32:27.248Z,49.60
2023-02-16T19:34:53.808Z,54.47
2023-02-16T19:37:20.473Z,56.63
2023-02-16T19:39:47.243Z,54.33
2023-02-16T19:42:13.883Z,52.53
2023-02-16T19:44:41.035Z,55.22
2023-02-16T19:47:07.918Z,56.70
2023-02-16T19:49:36.494Z,53.88
2023-02-16T19:52:04.182Z,53.42
2023-02-16T19:54:34.888Z,51.45
2023-02-16T19:59:28.486Z,52.42
2023-02-16T20:01:55.191Z,50.97
2023-02-16T20:04:21.844Z,48.45
2023-02-16T20:06:48.960Z,53.33
2023-02-16T20:09:17.961Z,51.00
2023-02-16T20:11:44.919Z,54.25
2023-02-16T20:14:12.446Z,54.75
2023-02-16T20:16:40.102Z,51.85
2023-02-16T20:19:06.869Z,53.92
2023-02-16T20:21:34.102Z,51.35
2023-02-16T20:24:03.861Z,52.38
2023-02-16T20:26:36.007Z,53.23
2023-02-16T20:29:04.825Z,53.30
2023-02-16T20:31:35.101Z,54.78
2023-02-16T20:34:02.180Z,58.22
2023-02-16T20:36:28.816Z,55.53
2023-02-16T20:38:55.833Z,59.45
2023-02-16T20:41:22.377Z,53.10
2023-02-16T20:43:49.516Z,56.83
2023-02-16T20:46:17.270Z,52.20
2023-02-16T20:48:46.470Z,60.42
2023-02-16T20:51:14.095Z,56.35
2023-02-16T20:53:41.146Z,52.60
2023-02-16T20:56:14.422Z,57.45
2023-02-16T20:58:42.389Z,66.90
2023-02-16T21:01:21.672Z,59.85
2023-02-16T21:03:49.168Z,59.30
2023-02-16T21:06:16.136Z,60.60
2023-02-16T21:08:43.105Z,58.55
2023-02-16T21:11:09.881Z,60.75
2023-02-16T21:13:37.411Z,60.55
2023-02-16T21:16:04.553Z,56.30
2023-02-16T21:18:31.361Z,59.63
2023-02-16T21:20:59.624Z,60.10
2023-02-16T21:23:26.557Z,60.63
2023-02-16T21:25:58.676Z,61.35
2023-02-16T21:28:25.838Z,58.10
2023-02-16T21:30:52.485Z,57.63
2023-02-16T21:33:19.148Z,57.55
2023-02-16T21:35:46.287Z,61.90
2023-02-16T21:38:12.898Z,58.60
2023-02-16T21:40:58.207Z,64.28
2023-02-16T21:43:24.989Z,59.30
2023-02-16T21:46:01.606Z,63.08
2023-02-16T21:48:46.799Z,56.47
2023-02-16T21:51:26.277Z,58.65
2023-02-16T21:53:53.455Z,62.30
2023-02-16T21:56:32.866Z,60.30
2023-02-16T21:58:59.615Z,59.22
2023-02-16T22:01:32.147Z,58.72
2023-02-16T22:04:00.390Z,54.13
2023-02-16T22:06:33.327Z,54.30
2023-02-16T22:09:01.714Z,57.58
2023-02-16T22:11:28.297Z,57.25
2023-02-16T22:13:57.265Z,52.45
2023-02-16T22:16:25.018Z,56.10
2023-02-16T22:18:57.344Z,55.28
2023-02-16T22:21:23.996Z,52.42
2023-02-16T22:23:50.602Z,57.17
2023-02-16T22:26:26.793Z,55.17
2023-02-16T22:28:54.044Z,61.08
2023-02-16T22:31:22.736Z,60.00
2023-02-16T22:33:55.416Z,58.05
2023-02-16T22:36:22.054Z,58.88
2023-02-16T22:38:48.599Z,57.60
2023-02-16T22:41:15.172Z,62.60
2023-02-16T22:43:41.689Z,57.95
2023-02-16T22:46:13.215Z,57.63
2023-02-16T22:48:39.858Z,61.85
2023-02-16T22:51:08.532Z,62.28
2023-02-16T22:53:35.433Z,62.08
2023-02-16T22:56:05.662Z,56.60
2023-02-16T22:58:32.529Z,60.60
2023-02-16T23:01:02.422Z,56.15
2023-02-16T23:03:29.963Z,57.80
2023-02-16T23:05:56.643Z,53.38
2023-02-16T23:08:23.508Z,56.88
2023-02-16T23:11:02.402Z,53.00
2023-02-16T23:13:34.060Z,53.85
2023-02-16T23:16:07.343Z,55.50
2023-02-16T23:18:34.630Z,50.08
2023-02-16T23:21:15.088Z,49.95
2023-02-16T23:23:41.994Z,49.50
2023-02-16T23:26:09.098Z,45.30
2023-02-16T23:28:37.878Z,49.72
2023-02-16T23:31:04.806Z,44.58
2023-02-16T23:33:31.634Z,47.28
2023-02-16T23:35:58.602Z,51.20
2023-02-16T23:38:25.593Z,45.90
2023-02-16T23:40:57.350Z,46.38
2023-02-16T23:43:24.695Z,49.28
2023-02-16T23:45:51.372Z,45.92
2023-02-16T23:48:18.106Z,47.97
2023-02-16T23:50:44.670Z,43.78
2023-02-16T23:53:11.273Z,48.92
2023-02-16T23:55:37.833Z,44.83
2023-02-16T23:58:04.484Z,43.25
